sensor_id;sensor_type;location;lat;lon;timestamp;pressure;altitude;pressure_sealevel;temperature;humidity
63019;BME280;49105;46.046;10.760;2023-04-02T00:09:28;94722.81;;;8.53;53.42
63019;BME280;49105;46.046;10.760;2023-04-02T00:12:13;94721.97;;;8.58;53.24
63019;BME280;49105;46.046;10.760;2023-04-02T00:14:53;94722.53;;;8.55;53.46
63019;BME280;49105;46.046;10.760;2023-04-02T00:17:29;94723.31;;;8.31;53.92
63019;BME280;49105;46.046;10.760;2023-04-02T00:20:07;94724.97;;;8.22;54.35
63019;BME280;49105;46.046;10.760;2023-04-02T00:22:42;94727.09;;;8.20;54.26
63019;BME280;49105;46.046;10.760;2023-04-02T00:25:19;94729.50;;;8.16;54.22
63019;BME280;49105;46.046;10.760;2023-04-02T00:27:55;94728.72;;;8.16;54.42
63019;BME280;49105;46.046;10.760;2023-04-02T00:30:23;94725.03;;;8.17;54.56
63019;BME280;49105;46.046;10.760;2023-04-02T00:32:50;94722.91;;;8.19;54.00
63019;BME280;49105;46.046;10.760;2023-04-02T00:35:25;94726.56;;;8.23;54.36
63019;BME280;49105;46.046;10.760;2023-04-02T00:37:57;94723.94;;;8.23;53.97
63019;BME280;49105;46.046;10.760;2023-04-02T00:40:25;94726.59;;;8.18;54.47
63019;BME280;49105;46.046;10.760;2023-04-02T00:42:59;94724.00;;;8.13;54.74
63019;BME280;49105;46.046;10.760;2023-04-02T00:45:31;94724.00;;;8.13;54.56
63019;BME280;49105;46.046;10.760;2023-04-02T00:50:46;94723.78;;;8.09;55.02
63019;BME280;49105;46.046;10.760;2023-04-02T00:56:48;94730.13;;;8.08;54.71
63019;BME280;49105;46.046;10.760;2023-04-02T00:59:31;94723.53;;;7.82;54.99
63019;BME280;49105;46.046;10.760;2023-04-02T01:02:02;94724.38;;;7.72;55.60
63019;BME280;49105;46.046;10.760;2023-04-02T01:08:06;94724.63;;;7.76;55.77
63019;BME280;49105;46.046;10.760;2023-04-02T01:11:03;94726.41;;;7.80;55.70
63019;BME280;49105;46.046;10.760;2023-04-02T01:22:12;94732.53;;;7.76;55.33
63019;BME280;49105;46.046;10.760;2023-04-02T01:24:42;94729.66;;;7.72;55.48
63019;BME280;49105;46.046;10.760;2023-04-02T01:27:19;94725.44;;;7.71;55.66
63019;BME280;49105;46.046;10.760;2023-04-02T01:29:55;94726.19;;;7.77;55.80
63019;BME280;49105;46.046;10.760;2023-04-02T01:32:25;94719.09;;;7.72;55.31
63019;BME280;49105;46.046;10.760;2023-04-02T01:35:04;94721.00;;;7.66;55.67
63019;BME280;49105;46.046;10.760;2023-04-02T01:37:53;94732.38;;;7.62;55.91
63019;BME280;49105;46.046;10.760;2023-04-02T01:40:37;94727.59;;;7.64;55.75
63019;BME280;49105;46.046;10.760;2023-04-02T01:45:35;94730.44;;;7.72;55.53
63019;BME280;49105;46.046;10.760;2023-04-02T01:48:16;94730.47;;;7.67;55.44
63019;BME280;49105;46.046;10.760;2023-04-02T01:50:49;94734.22;;;7.61;55.60
63019;BME280;49105;46.046;10.760;2023-04-02T01:53:27;94743.25;;;7.50;55.86
63019;BME280;49105;46.046;10.760;2023-04-02T01:56:01;94738.81;;;7.40;56.27
63019;BME280;49105;46.046;10.760;2023-04-02T01:58:37;94745.16;;;7.39;56.18
63019;BME280;49105;46.046;10.760;2023-04-02T02:01:18;94737.81;;;7.36;55.97
63019;BME280;49105;46.046;10.760;2023-04-02T02:03:46;94747.00;;;7.39;56.20
63019;BME280;49105;46.046;10.760;2023-04-02T02:06:19;94738.38;;;7.33;56.39
63019;BME280;49105;46.046;10.760;2023-04-02T02:09:00;94746.28;;;7.33;56.16
63019;BME280;49105;46.046;10.760;2023-04-02T02:11:32;94746.09;;;7.14;56.59
63019;BME280;49105;46.046;10.760;2023-04-02T02:14:08;94749.63;;;7.00;56.93
63019;BME280;49105;46.046;10.760;2023-04-02T02:16:46;94752.22;;;7.05;57.05
63019;BME280;49105;46.046;10.760;2023-04-02T02:21:51;94751.69;;;7.08;56.62
63019;BME280;49105;46.046;10.760;2023-04-02T02:24:31;94749.84;;;7.03;56.66
63019;BME280;49105;46.046;10.760;2023-04-02T02:30:11;94763.13;;;6.78;57.45
63019;BME280;49105;46.046;10.760;2023-04-02T02:33:05;94762.88;;;6.79;57.32
63019;BME280;49105;46.046;10.760;2023-04-02T02:35:43;94768.13;;;6.74;57.39
63019;BME280;49105;46.046;10.760;2023-04-02T02:41:03;94772.34;;;6.70;57.20
63019;BME280;49105;46.046;10.760;2023-04-02T02:43:37;94777.59;;;6.70;57.27
63019;BME280;49105;46.046;10.760;2023-04-02T02:46:15;94772.84;;;6.77;56.82
63019;BME280;49105;46.046;10.760;2023-04-02T02:48:47;94778.13;;;6.77;56.81
63019;BME280;49105;46.046;10.760;2023-04-02T02:51:25;94781.81;;;6.76;57.03
63019;BME280;49105;46.046;10.760;2023-04-02T02:54:01;94785.00;;;6.58;57.06
63019;BME280;49105;46.046;10.760;2023-04-02T02:56:36;94786.91;;;6.42;57.37
63019;BME280;49105;46.046;10.760;2023-04-02T02:59:07;94784.28;;;6.37;57.80
63019;BME280;49105;46.046;10.760;2023-04-02T03:01:42;94787.19;;;6.35;57.80
63019;BME280;49105;46.046;10.760;2023-04-02T03:04:12;94795.34;;;6.34;57.58
63019;BME280;49105;46.046;10.760;2023-04-02T03:06:40;94792.44;;;6.35;57.65
63019;BME280;49105;46.046;10.760;2023-04-02T03:09:20;94787.19;;;6.35;57.56
63019;BME280;49105;46.046;10.760;2023-04-02T03:12:01;94798.47;;;6.36;57.82
63019;BME280;49105;46.046;10.760;2023-04-02T03:14:34;94801.38;;;6.34;57.62
63019;BME280;49105;46.046;10.760;2023-04-02T03:17:18;94796.13;;;6.39;57.44
63019;BME280;49105;46.046;10.760;2023-04-02T03:19:57;94808.72;;;6.42;57.21
63019;BME280;49105;46.046;10.760;2023-04-02T03:22:34;94806.59;;;6.44;57.04
63019;BME280;49105;46.046;10.760;2023-04-02T03:25:23;94814.50;;;6.29;57.44
63019;BME280;49105;46.046;10.760;2023-04-02T03:28:00;94814.03;;;6.22;57.94
63019;BME280;49105;46.046;10.760;2023-04-02T03:33:12;94815.06;;;6.16;57.80
63019;BME280;49105;46.046;10.760;2023-04-02T03:35:46;94827.16;;;6.22;57.84
63019;BME280;49105;46.046;10.760;2023-04-02T03:43:34;94836.59;;;6.23;57.40
63019;BME280;49105;46.046;10.760;2023-04-02T03:46:31;94836.06;;;6.16;57.57
63019;BME280;49105;46.046;10.760;2023-04-02T03:51:52;94845.53;;;6.07;57.76
63019;BME280;49105;46.046;10.760;2023-04-02T03:54:19;94847.91;;;5.98;58.18
63019;BME280;49105;46.046;10.760;2023-04-02T03:56:51;94852.63;;;5.96;58.27
63019;BME280;49105;46.046;10.760;2023-04-02T03:59:42;94845.53;;;6.07;58.34
63019;BME280;49105;46.046;10.760;2023-04-02T04:02:41;94853.41;;;6.12;58.36
63019;BME280;49105;46.046;10.760;2023-04-02T04:05:20;94853.16;;;6.03;58.34
63019;BME280;49105;46.046;10.760;2023-04-02T04:11:23;94859.16;;;5.73;59.13
63019;BME280;49105;46.046;10.760;2023-04-02T04:14:08;94858.09;;;5.79;58.79
63019;BME280;49105;46.046;10.760;2023-04-02T04:16:44;94856.00;;;5.91;58.47
63019;BME280;49105;46.046;10.760;2023-04-02T04:19:26;94862.38;;;6.06;58.36
63019;BME280;49105;46.046;10.760;2023-04-02T04:22:08;94863.94;;;6.07;58.27
63019;BME280;49105;46.046;10.760;2023-04-02T04:24:47;94861.25;;;5.91;58.57
63019;BME280;49105;46.046;10.760;2023-04-02T04:27:45;94868.09;;;5.82;58.52
63019;BME280;49105;46.046;10.760;2023-04-02T04:30:27;94876.75;;;5.72;58.52
63019;BME280;49105;46.046;10.760;2023-04-02T04:33:00;94880.94;;;5.73;58.66
63019;BME280;49105;46.046;10.760;2023-04-02T04:35:36;94888.53;;;5.75;58.73
63019;BME280;49105;46.046;10.760;2023-04-02T04:40:49;94895.66;;;5.80;58.72
63019;BME280;49105;46.046;10.760;2023-04-02T04:43:37;94898.28;;;5.80;58.64
63019;BME280;49105;46.046;10.760;2023-04-02T04:46:19;94891.19;;;5.80;58.60
63019;BME280;49105;46.046;10.760;2023-04-02T04:54:12;94909.59;;;5.80;58.45
63019;BME280;49105;46.046;10.760;2023-04-02T04:56:38;94909.81;;;5.84;58.30
63019;BME280;49105;46.046;10.760;2023-04-02T04:59:27;94908.00;;;5.84;58.46
63019;BME280;49105;46.046;10.760;2023-04-02T05:02:01;94906.13;;;5.69;59.18
63019;BME280;49105;46.046;10.760;2023-04-02T05:04:46;94912.66;;;5.57;58.97
63019;BME280;49105;46.046;10.760;2023-04-02T05:07:27;94912.41;;;5.58;59.57
63019;BME280;49105;46.046;10.760;2023-04-02T05:09:58;94917.16;;;5.66;59.05
63019;BME280;49105;46.046;10.760;2023-04-02T05:20:53;94909.03;;;5.88;58.87
63019;BME280;49105;46.046;10.760;2023-04-02T05:23:28;94917.94;;;5.67;59.05
63019;BME280;49105;46.046;10.760;2023-04-02T05:26:18;94920.03;;;5.65;59.32
63019;BME280;49105;46.046;10.760;2023-04-02T05:29:23;94921.13;;;5.79;59.35
63019;BME280;49105;46.046;10.760;2023-04-02T05:31:58;94923.81;;;5.94;58.67
63019;BME280;49105;46.046;10.760;2023-04-02T05:34:34;94924.88;;;5.99;59.17
63019;BME280;49105;46.046;10.760;2023-04-02T05:37:05;94920.16;;;6.06;58.87
63019;BME280;49105;46.046;10.760;2023-04-02T05:39:43;94923.84;;;6.15;58.99
63019;BME280;49105;46.046;10.760;2023-04-02T05:42:22;94927.25;;;6.20;58.55
63019;BME280;49105;46.046;10.760;2023-04-02T05:45:22;94928.03;;;6.21;59.01
63019;BME280;49105;46.046;10.760;2023-04-02T05:48:38;94926.22;;;6.27;58.81
63019;BME280;49105;46.046;10.760;2023-04-02T05:51:10;94924.88;;;6.09;59.07
63019;BME280;49105;46.046;10.760;2023-04-02T05:53:46;94924.59;;;5.95;59.35
63019;BME280;49105;46.046;10.760;2023-04-02T05:56:34;94933.25;;;5.95;59.30
63019;BME280;49105;46.046;10.760;2023-04-02T05:59:17;94938.53;;;6.06;59.45
63019;BME280;49105;46.046;10.760;2023-04-02T06:04:31;94940.69;;;6.34;58.93
63019;BME280;49105;46.046;10.760;2023-04-02T06:07:26;94938.31;;;6.48;58.65
63019;BME280;49105;46.046;10.760;2023-04-02T06:10:00;94939.63;;;6.56;58.44
63019;BME280;49105;46.046;10.760;2023-04-02T06:12:36;94940.66;;;6.44;58.54
63019;BME280;49105;46.046;10.760;2023-04-02T06:15:15;94945.38;;;6.32;58.68
63019;BME280;49105;46.046;10.760;2023-04-02T06:17:51;94946.97;;;6.28;58.76
63019;BME280;49105;46.046;10.760;2023-04-02T06:20:20;94940.66;;;6.44;59.10
63019;BME280;49105;46.046;10.760;2023-04-02T06:22:52;94940.16;;;6.63;58.60
63019;BME280;49105;46.046;10.760;2023-04-02T06:25:27;94930.13;;;6.70;58.67
63019;BME280;49105;46.046;10.760;2023-04-02T06:28:03;94945.38;;;6.83;58.34
63019;BME280;49105;46.046;10.760;2023-04-02T06:30:38;94936.91;;;7.02;58.01
63019;BME280;49105;46.046;10.760;2023-04-02T06:33:10;94936.38;;;7.10;57.88
63019;BME280;49105;46.046;10.760;2023-04-02T06:35:47;94942.41;;;7.20;57.70
63019;BME280;49105;46.046;10.760;2023-04-02T06:38:22;94942.38;;;7.31;57.36
63019;BME280;49105;46.046;10.760;2023-04-02T06:41:01;94948.94;;;7.38;57.31
63019;BME280;49105;46.046;10.760;2023-04-02T06:43:42;94941.22;;;7.52;57.29
63019;BME280;49105;46.046;10.760;2023-04-02T06:52:04;94942.97;;;7.77;56.92
63019;BME280;49105;46.046;10.760;2023-04-02T06:54:36;94945.81;;;7.86;56.96
63019;BME280;49105;46.046;10.760;2023-04-02T06:57:11;94948.16;;;7.92;56.84
63019;BME280;49105;46.046;10.760;2023-04-02T06:59:37;94950.25;;;7.95;56.77
63019;BME280;49105;46.046;10.760;2023-04-02T07:02:26;94953.91;;;8.00;56.74
63019;BME280;49105;46.046;10.760;2023-04-02T07:05:06;94949.69;;;8.04;56.60
63019;BME280;49105;46.046;10.760;2023-04-02T07:07:36;94958.84;;;8.11;56.45
63019;BME280;49105;46.046;10.760;2023-04-02T07:10:11;94949.59;;;8.19;56.29
63019;BME280;49105;46.046;10.760;2023-04-02T07:12:37;94962.97;;;8.28;56.00
63019;BME280;49105;46.046;10.760;2023-04-02T07:15:03;94953.94;;;8.39;55.86
63019;BME280;49105;46.046;10.760;2023-04-02T07:17:28;94957.06;;;8.46;55.89
63019;BME280;49105;46.046;10.760;2023-04-02T07:19:57;94959.47;;;8.42;55.93
63019;BME280;49105;46.046;10.760;2023-04-02T07:25:45;94966.34;;;8.43;55.79
63019;BME280;49105;46.046;10.760;2023-04-02T07:28:13;94962.88;;;8.48;55.53
63019;BME280;49105;46.046;10.760;2023-04-02T07:30:39;94969.72;;;8.49;55.66
63019;BME280;49105;46.046;10.760;2023-04-02T07:33:20;94964.69;;;8.53;55.79
63019;BME280;49105;46.046;10.760;2023-04-02T07:35:53;94963.31;;;8.55;55.79
63019;BME280;49105;46.046;10.760;2023-04-02T07:38:22;94966.38;;;8.67;55.21
63019;BME280;49105;46.046;10.760;2023-04-02T07:40:51;94972.84;;;8.85;55.08
63019;BME280;49105;46.046;10.760;2023-04-02T07:43:16;94969.78;;;9.02;54.89
63019;BME280;49105;46.046;10.760;2023-04-02T07:45:42;94959.41;;;9.11;54.25
63019;BME280;49105;46.046;10.760;2023-04-02T07:48:13;94972.56;;;9.16;54.12
63019;BME280;49105;46.046;10.760;2023-04-02T07:50:48;94977.75;;;9.26;54.26
63019;BME280;49105;46.046;10.760;2023-04-02T07:53:31;94974.16;;;9.41;54.00
63019;BME280;49105;46.046;10.760;2023-04-02T07:56:06;94967.38;;;9.59;54.06
63019;BME280;49105;46.046;10.760;2023-04-02T07:58:35;94973.81;;;9.72;53.36
63019;BME280;49105;46.046;10.760;2023-04-02T08:01:00;94971.81;;;9.82;52.94
63019;BME280;49105;46.046;10.760;2023-04-02T08:03:33;94960.50;;;10.01;53.47
63019;BME280;49105;46.046;10.760;2023-04-02T08:05:59;94965.56;;;10.16;52.57
63019;BME280;49105;46.046;10.760;2023-04-02T08:08:35;94961.25;;;10.25;52.15
63019;BME280;49105;46.046;10.760;2023-04-02T08:11:01;94964.81;;;10.34;52.00
63019;BME280;49105;46.046;10.760;2023-04-02T08:13:35;94961.31;;;10.39;52.15
63019;BME280;49105;46.046;10.760;2023-04-02T08:16:10;94969.06;;;10.49;52.46
63019;BME280;49105;46.046;10.760;2023-04-02T08:18:36;94969.22;;;10.58;51.88
63019;BME280;49105;46.046;10.760;2023-04-02T08:21:09;94967.84;;;10.60;51.53
63019;BME280;49105;46.046;10.760;2023-04-02T08:23:38;94962.78;;;10.64;51.68
63019;BME280;49105;46.046;10.760;2023-04-02T08:26:16;94966.19;;;10.64;51.82
63019;BME280;49105;46.046;10.760;2023-04-02T08:28:42;94961.41;;;10.66;51.44
63019;BME280;49105;46.046;10.760;2023-04-02T08:31:10;94968.28;;;10.67;51.15
63019;BME280;49105;46.046;10.760;2023-04-02T08:33:40;94962.00;;;10.63;50.98
63019;BME280;49105;46.046;10.760;2023-04-02T08:36:16;94959.66;;;10.62;51.05
63019;BME280;49105;46.046;10.760;2023-04-02T08:38:51;94959.56;;;10.67;51.38
63019;BME280;49105;46.046;10.760;2023-04-02T08:41:26;94963.63;;;10.78;50.67
63019;BME280;49105;46.046;10.760;2023-04-02T08:47:01;94958.78;;;11.13;50.64
63019;BME280;49105;46.046;10.760;2023-04-02T08:49:38;94953.81;;;11.25;50.46
63019;BME280;49105;46.046;10.760;2023-04-02T08:52:37;94951.56;;;11.32;50.14
63019;BME280;49105;46.046;10.760;2023-04-02T08:55:16;94945.28;;;11.42;50.08
63019;BME280;49105;46.046;10.760;2023-04-02T08:57:52;94953.31;;;11.51;49.90
63019;BME280;49105;46.046;10.760;2023-04-02T09:03:34;94946.75;;;11.89;49.79
63019;BME280;49105;46.046;10.760;2023-04-02T09:06:12;94942.59;;;12.11;49.61
63019;BME280;49105;46.046;10.760;2023-04-02T09:08:50;94936.25;;;12.34;49.37
63019;BME280;49105;46.046;10.760;2023-04-02T09:11:26;94938.88;;;12.57;48.95
63019;BME280;49105;46.046;10.760;2023-04-02T09:13:59;94935.56;;;12.74;48.87
63019;BME280;49105;46.046;10.760;2023-04-02T09:16:51;94940.38;;;12.94;47.77
63019;BME280;49105;46.046;10.760;2023-04-02T09:19:30;94931.25;;;13.09;48.08
63019;BME280;49105;46.046;10.760;2023-04-02T09:22:18;94930.63;;;13.12;46.65
63019;BME280;49105;46.046;10.760;2023-04-02T09:24:53;94929.84;;;13.11;46.91
63019;BME280;49105;46.046;10.760;2023-04-02T09:27:27;94931.56;;;13.16;43.34
63019;BME280;49105;46.046;10.760;2023-04-02T09:32:58;94928.00;;;13.52;44.07
63019;BME280;49105;46.046;10.760;2023-04-02T09:35:38;94926.31;;;13.64;43.62
63019;BME280;49105;46.046;10.760;2023-04-02T09:38:25;94935.09;;;13.74;42.64
63019;BME280;49105;46.046;10.760;2023-04-02T09:43:35;94934.81;;;13.75;41.44
63019;BME280;49105;46.046;10.760;2023-04-02T09:46:17;94943.06;;;13.74;38.56
63019;BME280;49105;46.046;10.760;2023-04-02T09:48:52;94941.84;;;13.71;37.42
63019;BME280;49105;46.046;10.760;2023-04-02T09:51:37;94941.53;;;13.73;38.86
63019;BME280;49105;46.046;10.760;2023-04-02T09:54:11;94950.09;;;13.70;38.56
63019;BME280;49105;46.046;10.760;2023-04-02T09:56:39;94956.84;;;13.67;39.36
63019;BME280;49105;46.046;10.760;2023-04-02T09:59:18;94954.00;;;13.63;39.91
63019;BME280;49105;46.046;10.760;2023-04-02T10:04:41;94962.31;;;13.62;39.29
63019;BME280;49105;46.046;10.760;2023-04-02T10:07:37;94955.94;;;13.80;38.95
63019;BME280;49105;46.046;10.760;2023-04-02T10:13:06;94948.50;;;14.34;38.39
63019;BME280;49105;46.046;10.760;2023-04-02T10:15:57;94948.84;;;14.59;36.94
63019;BME280;49105;46.046;10.760;2023-04-02T10:18:49;94949.59;;;14.77;37.66
63019;BME280;49105;46.046;10.760;2023-04-02T10:21:18;94943.50;;;14.94;37.53
63019;BME280;49105;46.046;10.760;2023-04-02T10:23:48;94932.03;;;15.02;37.41
63019;BME280;49105;46.046;10.760;2023-04-02T10:40:00;94937.88;;;14.52;36.41
63019;BME280;49105;46.046;10.760;2023-04-02T10:52:13;94934.28;;;14.56;33.85
63019;BME280;49105;46.046;10.760;2023-04-02T10:54:40;94934.75;;;14.58;34.73
63019;BME280;49105;46.046;10.760;2023-04-02T11:02:55;94935.06;;;14.74;35.75
63019;BME280;49105;46.046;10.760;2023-04-02T11:05:46;94931.44;;;14.79;35.10
63019;BME280;49105;46.046;10.760;2023-04-02T11:11:14;94928.75;;;14.87;34.44
63019;BME280;49105;46.046;10.760;2023-04-02T11:13:49;94928.44;;;14.89;34.63
63019;BME280;49105;46.046;10.760;2023-04-02T11:16:19;94926.69;;;14.93;34.72
63019;BME280;49105;46.046;10.760;2023-04-02T11:21:47;94930.63;;;14.96;33.65
63019;BME280;49105;46.046;10.760;2023-04-02T11:29:41;94926.38;;;15.03;32.44
63019;BME280;49105;46.046;10.760;2023-04-02T11:37:41;94939.09;;;14.98;31.94
63019;BME280;49105;46.046;10.760;2023-04-02T11:42:46;94937.84;;;14.86;31.81
63019;BME280;49105;46.046;10.760;2023-04-02T11:53:23;94932.59;;;15.25;31.06
63019;BME280;49105;46.046;10.760;2023-04-02T12:04:23;94928.34;;;15.62;30.99
63019;BME280;49105;46.046;10.760;2023-04-02T12:09:49;94921.69;;;15.47;30.69
63019;BME280;49105;46.046;10.760;2023-04-02T12:14:48;94930.34;;;15.35;30.34
63019;BME280;49105;46.046;10.760;2023-04-02T12:17:31;94940.09;;;15.31;30.46
63019;BME280;49105;46.046;10.760;2023-04-02T12:22:50;94937.91;;;15.25;30.35
63019;BME280;49105;46.046;10.760;2023-04-02T12:25:33;94932.41;;;15.30;30.68
63019;BME280;49105;46.046;10.760;2023-04-02T12:30:44;94936.31;;;15.32;30.56
63019;BME280;49105;46.046;10.760;2023-04-02T12:33:28;94943.22;;;15.33;31.19
63019;BME280;49105;46.046;10.760;2023-04-02T12:36:00;94930.81;;;15.37;31.21
63019;BME280;49105;46.046;10.760;2023-04-02T12:38:43;94936.63;;;15.39;31.72
63019;BME280;49105;46.046;10.760;2023-04-02T12:41:34;94946.81;;;15.37;31.43
63019;BME280;49105;46.046;10.760;2023-04-02T12:44:05;94942.09;;;15.34;31.23
63019;BME280;49105;46.046;10.760;2023-04-02T12:46:34;94945.88;;;15.33;31.44
63019;BME280;49105;46.046;10.760;2023-04-02T12:51:56;94944.31;;;15.32;33.10
63019;BME280;49105;46.046;10.760;2023-04-02T12:54:23;94949.47;;;15.37;33.66
63019;BME280;49105;46.046;10.760;2023-04-02T13:02:58;94958.13;;;15.26;35.27
63019;BME280;49105;46.046;10.760;2023-04-02T13:05:36;94966.59;;;15.28;35.51
63019;BME280;49105;46.046;10.760;2023-04-02T13:08:35;94978.84;;;15.29;35.71
63019;BME280;49105;46.046;10.760;2023-04-02T13:11:04;94967.06;;;15.30;35.98
63019;BME280;49105;46.046;10.760;2023-04-02T13:13:40;94960.50;;;15.27;36.52
63019;BME280;49105;46.046;10.760;2023-04-02T13:18:43;94972.56;;;15.25;37.19
63019;BME280;49105;46.046;10.760;2023-04-02T13:23:44;94969.44;;;15.14;37.75
63019;BME280;49105;46.046;10.760;2023-04-02T13:26:27;94962.25;;;15.06;37.62
63019;BME280;49105;46.046;10.760;2023-04-02T13:31:42;94966.53;;;14.98;38.31
63019;BME280;49105;46.046;10.760;2023-04-02T13:34:14;94975.75;;;15.01;38.25
63019;BME280;49105;46.046;10.760;2023-04-02T13:36:45;94978.56;;;15.04;38.22
63019;BME280;49105;46.046;10.760;2023-04-02T13:39:20;94976.84;;;15.00;38.48
63019;BME280;49105;46.046;10.760;2023-04-02T13:42:00;94973.09;;;15.01;38.29
63019;BME280;49105;46.046;10.760;2023-04-02T13:44:31;94967.47;;;15.02;38.83
63019;BME280;49105;46.046;10.760;2023-04-02T13:46:57;94983.28;;;14.99;39.05
63019;BME280;49105;46.046;10.760;2023-04-02T13:49:23;94976.88;;;14.91;38.95
63019;BME280;49105;46.046;10.760;2023-04-02T13:52:00;94977.81;;;14.95;39.01
63019;BME280;49105;46.046;10.760;2023-04-02T13:54:45;94969.78;;;15.04;39.44
63019;BME280;49105;46.046;10.760;2023-04-02T13:57:15;94972.78;;;15.02;39.36
63019;BME280;49105;46.046;10.760;2023-04-02T13:59:42;94969.16;;;15.07;39.04
63019;BME280;49105;46.046;10.760;2023-04-02T14:02:09;94961.31;;;15.10;39.40
63019;BME280;49105;46.046;10.760;2023-04-02T14:04:47;94971.19;;;15.19;38.98
63019;BME280;49105;46.046;10.760;2023-04-02T14:12:39;94965.69;;;15.15;38.62
63019;BME280;49105;46.046;10.760;2023-04-02T14:17:57;94975.75;;;15.01;38.97
63019;BME280;49105;46.046;10.760;2023-04-02T14:20:35;94966.50;;;15.07;38.63
63019;BME280;49105;46.046;10.760;2023-04-02T14:26:31;94965.84;;;15.19;38.70
63019;BME280;49105;46.046;10.760;2023-04-02T14:29:36;94969.72;;;15.30;38.90
63019;BME280;49105;46.046;10.760;2023-04-02T14:32:21;94970.47;;;15.48;38.82
63019;BME280;49105;46.046;10.760;2023-04-02T14:35:07;94965.59;;;15.50;38.69
63019;BME280;49105;46.046;10.760;2023-04-02T14:43:44;94956.41;;;15.30;38.55
63019;BME280;49105;46.046;10.760;2023-04-02T14:46:10;94962.69;;;15.25;39.03
63019;BME280;49105;46.046;10.760;2023-04-02T14:57:21;94954.22;;;15.70;38.61
63019;BME280;49105;46.046;10.760;2023-04-02T15:02:54;94945.16;;;15.92;38.17
63019;BME280;49105;46.046;10.760;2023-04-02T15:08:21;94941.81;;;16.04;38.40
63019;BME280;49105;46.046;10.760;2023-04-02T15:11:00;94941.63;;;16.09;38.00
63019;BME280;49105;46.046;10.760;2023-04-02T15:16:27;94946.00;;;16.13;37.95
63019;BME280;49105;46.046;10.760;2023-04-02T15:18:59;94948.81;;;16.17;37.80
63019;BME280;49105;46.046;10.760;2023-04-02T15:30:01;94952.41;;;16.12;37.86
63019;BME280;49105;46.046;10.760;2023-04-02T15:37:41;94955.19;;;15.66;37.82
63019;BME280;49105;46.046;10.760;2023-04-02T15:45:50;94959.22;;;15.33;37.18
63019;BME280;49105;46.046;10.760;2023-04-02T15:54:29;94965.28;;;15.51;36.85
63019;BME280;49105;46.046;10.760;2023-04-02T16:08:12;94969.28;;;15.28;37.21
63019;BME280;49105;46.046;10.760;2023-04-02T16:10:43;94988.25;;;15.18;37.30
63019;BME280;49105;46.046;10.760;2023-04-02T16:16:24;94983.44;;;15.02;37.95
63019;BME280;49105;46.046;10.760;2023-04-02T16:21:28;94996.47;;;14.86;38.62
63019;BME280;49105;46.046;10.760;2023-04-02T16:24:12;95000.53;;;14.75;38.45
63019;BME280;49105;46.046;10.760;2023-04-02T16:32:15;95010.69;;;14.47;38.68
63019;BME280;49105;46.046;10.760;2023-04-02T16:35:13;95013.66;;;14.37;38.58
63019;BME280;49105;46.046;10.760;2023-04-02T16:37:48;95021.31;;;14.30;38.79
63019;BME280;49105;46.046;10.760;2023-04-02T16:40:52;95018.63;;;14.21;39.48
63019;BME280;49105;46.046;10.760;2023-04-02T16:43:32;95029.56;;;14.11;39.36
63019;BME280;49105;46.046;10.760;2023-04-02T16:51:44;95039.03;;;13.86;40.27
63019;BME280;49105;46.046;10.760;2023-04-02T16:54:31;95029.91;;;13.78;40.41
63019;BME280;49105;46.046;10.760;2023-04-02T17:05:28;95060.34;;;13.55;41.13
63019;BME280;49105;46.046;10.760;2023-04-02T17:08:25;95059.97;;;13.48;41.17
63019;BME280;49105;46.046;10.760;2023-04-02T17:11:04;95070.13;;;13.46;41.63
63019;BME280;49105;46.046;10.760;2023-04-02T17:13:51;95066.81;;;13.40;41.80
63019;BME280;49105;46.046;10.760;2023-04-02T17:19:15;95070.00;;;13.28;41.90
63019;BME280;49105;46.046;10.760;2023-04-02T17:21:52;95073.06;;;13.22;42.25
63019;BME280;49105;46.046;10.760;2023-04-02T17:24:41;95071.63;;;13.15;42.39
63019;BME280;49105;46.046;10.760;2023-04-02T17:29:48;95069.03;;;13.02;43.02
63019;BME280;49105;46.046;10.760;2023-04-02T17:32:30;95075.84;;;12.94;42.54
63019;BME280;49105;46.046;10.760;2023-04-02T17:37:48;95091.72;;;12.85;43.10
63019;BME280;49105;46.046;10.760;2023-04-02T17:40:33;95088.38;;;12.80;43.30
63019;BME280;49105;46.046;10.760;2023-04-02T17:43:32;95096.56;;;12.70;43.42
63019;BME280;49105;46.046;10.760;2023-04-02T17:48:45;95105.53;;;12.60;43.54
63019;BME280;49105;46.046;10.760;2023-04-02T17:51:33;95109.09;;;12.55;43.23
63019;BME280;49105;46.046;10.760;2023-04-02T17:56:56;95120.00;;;12.40;43.68
63019;BME280;49105;46.046;10.760;2023-04-02T18:02:24;95124.25;;;12.27;43.51
63019;BME280;49105;46.046;10.760;2023-04-02T18:11:46;95138.00;;;12.02;43.85
63019;BME280;49105;46.046;10.760;2023-04-02T18:17:20;95152.28;;;11.87;43.54
63019;BME280;49105;46.046;10.760;2023-04-02T18:30:53;95174.31;;;11.17;45.40
63019;BME280;49105;46.046;10.760;2023-04-02T18:39:02;95188.63;;;10.97;45.62
63019;BME280;49105;46.046;10.760;2023-04-02T18:42:12;95202.63;;;10.98;45.51
63019;BME280;49105;46.046;10.760;2023-04-02T18:47:29;95213.97;;;11.03;45.38
63019;BME280;49105;46.046;10.760;2023-04-02T18:50:17;95225.56;;;11.07;44.61
63019;BME280;49105;46.046;10.760;2023-04-02T18:52:44;95230.09;;;11.07;44.64
63019;BME280;49105;46.046;10.760;2023-04-02T18:55:27;95235.25;;;10.93;45.15
63019;BME280;49105;46.046;10.760;2023-04-02T18:58:22;95238.47;;;10.90;45.02
63019;BME280;49105;46.046;10.760;2023-04-02T19:00:49;95247.56;;;10.84;44.82
63019;BME280;49105;46.046;10.760;2023-04-02T19:06:02;95255.34;;;10.75;45.14
63019;BME280;49105;46.046;10.760;2023-04-02T19:08:45;95259.72;;;10.61;45.24
63019;BME280;49105;46.046;10.760;2023-04-02T19:11:22;95270.91;;;10.58;45.05
63019;BME280;49105;46.046;10.760;2023-04-02T19:14:10;95262.72;;;10.54;45.12
63019;BME280;49105;46.046;10.760;2023-04-02T19:28:27;95298.00;;;10.10;46.38
63019;BME280;49105;46.046;10.760;2023-04-02T19:42:47;95306.78;;;9.66;47.30